• Join FlightAware (Why Join?)
  • Login
  • US Flag 
10:38PM EDT


 

Airport Tracker/Info


-or-


 

Live Flight TrackerFlight Track Log ✈ UAL304 ✈ 31-Jan-2014 ✈ KSFO - KJFK

Flight Track Log - Related Links

Times and Time Zones

All times are in EST time to prevent confusion due to time zone crossing. See the UAL304 flight status page for this flight to view local times or setup timezone preferences in your user account.

Time Position Orientation Groundspeed Altitude Reporting Facility
EST Latitude Longitude Course Direction KTS MPH feet Rate Location/Type
06:40PM 37.6500 -122.3167 63° Northeast 194 223 2,600  Level Northern Cal TRACON
06:41PM 37.7000 -122.2667 38° Northeast 245 282 5,100 3,180 Climbing Northern Cal TRACON
06:42PM 37.8107 -121.9235 61° Northeast  Level FlightAware Approximate
06:42PM 37.7333 -122.1833 63° Northeast 263 303 8,700  Level Northern Cal TRACON
06:43PM 37.8798 -121.7737 58° Northeast  Level FlightAware Approximate
06:43PM 37.7667 -122.1000 63° Northeast 308 354 11,000  Level Northern Cal TRACON
06:44PM 37.9456 -121.6214 61° Northeast  Level FlightAware Approximate
06:44PM 37.8167 -121.9833 61° Northeast 355 409 13,400  Level Northern Cal TRACON
06:45PM 38.0122 -121.4695 63° Northeast  Level FlightAware Approximate
06:45PM 37.8792 -121.8417 61° Northeast 372 428 17,100  Level Oakland Center
06:46PM 37.9278 -121.7261 62° Northeast 388 447 19,200 2,040 Climbing Oakland Center
06:47PM 37.9786 -121.6014 63° Northeast 397 457 21,400 1,800 Climbing Oakland Center
06:48PM 38.0350 -121.4650 62° Northeast 433 498 23,000 1,560 Climbing Oakland Center
06:49PM 38.0919 -121.3211 63° Northeast 455 524 24,600 1,680 Climbing Oakland Center
06:50PM 38.1642 -121.1439 63° Northeast 472 543 26,500 1,620 Climbing Oakland Center
06:51PM 38.2147 -120.9833 68° East 500 575 28,000 1,380 Climbing Oakland Center
06:52PM 38.2406 -120.8028 80° East 522 601 29,400 1,140 Climbing Oakland Center
06:53PM 38.2656 -120.6178 80° East 531 611 30,400 900 Climbing Oakland Center
06:54PM 38.2906 -120.4275 80° East 546 628 31,300 1,200 Climbing Oakland Center
06:55PM 38.3175 -120.2369 80° East 548 631 32,900 960 Climbing Oakland Center
06:56PM 38.3458 -120.0450 79° East 553 636 33,300 1,020 Climbing Oakland Center
06:57PM 38.3719 -119.8506 80° East 555 639 35,100 780 Climbing Oakland Center
06:58PM 38.3986 -119.6344 81° East 520 598 35,000 -60 Descending Oakland Center
06:59PM 38.4197 -119.4692 81° East 510 587 35,000  Level Oakland Center
07:00PM 38.4431 -119.2903 80° East 513 590 35,000  Level Oakland Center
07:01PM 38.4653 -119.1114 81° East 514 592 35,000  Level Oakland Center
07:02PM 38.4883 -118.9306 81° East 518 596 35,000  Level Oakland Center
07:03PM 38.5158 -118.7172 81° East 514 592 35,000  Level Oakland Center
07:04PM 38.5372 -118.5431 81° East 505 581 35,000  Level Oakland Center
07:05PM 38.5581 -118.3664 81° East 505 581 35,000  Level Oakland Center
07:06PM 38.5781 -118.1917 82° East 502 578 35,000  Level Oakland Center
07:07PM 38.6006 -118.0094 81° East 501 577 35,000  Level Oakland Center
07:08PM 38.6208 -117.8317 82° East 503 579 35,000  Level Oakland Center
07:09PM 38.6414 -117.6528 82° East 505 581 35,000  Level Oakland Center
07:10PM 38.6606 -117.4753 82° East 502 578 35,000  Level Oakland Center
07:11PM 38.6797 -117.2978 82° East 500 575 35,000  Level Oakland Center
07:12PM 38.7094 -117.1239 78° East 497 572 35,000  Level Oakland Center
07:13PM 38.7253 -117.0194 79° East 496 571 35,000  Level Salt Lake Center
07:14PM 38.7544 -116.8469 78° East 494 568 35,000  Level Salt Lake Center
07:15PM 38.7842 -116.6731 78° East 497 572 35,000  Level Salt Lake Center
07:16PM 38.8119 -116.5008 78° East 493 567 35,000  Level Salt Lake Center
07:17PM 38.8397 -116.3258 78° East 497 572 35,000  Level Salt Lake Center
07:18PM 38.8692 -116.1492 78° East 503 579 35,000  Level Salt Lake Center
07:19PM 38.9028 -115.9375 78° East 503 579 35,000  Level Salt Lake Center
07:20PM 38.9311 -115.7608 78° East 505 581 35,000  Level Salt Lake Center
07:21PM 38.9594 -115.5828 78° East 507 583 35,000  Level Salt Lake Center
07:22PM 38.9869 -115.4056 79° East 506 582 35,000  Level Salt Lake Center
07:23PM 39.0169 -115.2242 78° East 514 592 35,000  Level Salt Lake Center
07:24PM 39.0439 -115.0458 79° East 511 588 35,000  Level Salt Lake Center
07:25PM 39.0703 -114.8681 79° East 508 585 35,000  Level Salt Lake Center
07:26PM 39.0972 -114.6908 79° East 506 582 35,000  Level Salt Lake Center
07:27PM 39.1231 -114.5133 79° East 505 581 35,000  Level Salt Lake Center
07:28PM 39.1481 -114.3372 80° East 502 578 35,000  Level Salt Lake Center
07:29PM 39.1781 -114.1275 79° East 498 573 35,000  Level Salt Lake Center
07:30PM 39.2039 -113.9511 79° East 499 574 35,000  Level Salt Lake Center
07:31PM 39.2281 -113.7744 80° East 501 577 35,000  Level Salt Lake Center
07:33PM 39.2528 -113.5983 80° East 500 575 35,000  Level Salt Lake Center
07:34PM 39.2764 -113.4200 80° East 503 579 35,000  Level Salt Lake Center
07:35PM 39.3003 -113.2419 80° East 504 580 35,000  Level Salt Lake Center
07:36PM 39.3300 -113.0650 78° East 504 580 35,000  Level Salt Lake Center
07:37PM 39.3603 -112.8875 78° East 506 582 35,000  Level Salt Lake Center
07:38PM 39.3939 -112.6747 78° East 506 582 35,000  Level Salt Lake Center
07:39PM 39.4236 -112.4972 78° East 508 585 35,000  Level Salt Lake Center
07:40PM 39.4514 -112.3197 78° East 508 585 35,000  Level Salt Lake Center
07:41PM 39.4800 -112.1436 78° East 504 580 35,000  Level Salt Lake Center
07:43PM 39.5347 -111.7900 79° East 504 580 35,000  Level Salt Lake Center
07:44PM 39.5619 -111.6122 79° East 505 581 35,000  Level Salt Lake Center
07:45PM 39.5956 -111.4014 78° East 502 578 35,000  Level Salt Lake Center
07:46PM 39.6206 -111.2394 79° East 501 577 35,000  Level Salt Lake Center
07:47PM 39.6506 -111.0417 79° East 500 575 35,000  Level Salt Lake Center
07:48PM 39.6753 -110.8703 79° East 504 580 35,000  Level Salt Lake Center
07:49PM 39.6992 -110.6997 80° East 504 580 35,000  Level Salt Lake Center
07:50PM 39.7289 -110.4989 79° East 506 582 35,000  Level Salt Lake Center
07:51PM 39.7542 -110.3264 79° East 507 583 35,000  Level Salt Lake Center
07:52PM 39.7811 -110.1258 80° East 506 582 35,000  Level Salt Lake Center
07:53PM 39.8053 -109.9536 80° East 507 583 35,000  Level Salt Lake Center
07:54PM 39.8342 -109.7514 79° East 509 586 35,000  Level Salt Lake Center
07:55PM 39.8578 -109.5794 80° East 506 582 35,000  Level Salt Lake Center
07:56PM 39.8808 -109.4058 80° East 506 582 35,000  Level Salt Lake Center
07:57PM 39.9075 -109.2022 80° East 509 586 35,000  Level Salt Lake Center
07:58PM 39.9300 -109.0272 80° East 510 587 35,000  Level Salt Lake Center
07:59PM 39.9567 -108.8231 80° East 508 585 35,000  Level Salt Lake Center
08:00PM 39.9789 -108.6478 81° East 507 583 35,000  Level Salt Lake Center
08:01PM 40.0011 -108.4728 81° East 508 585 35,000  Level Salt Lake Center
08:02PM 40.0264 -108.2686 81° East 509 586 35,000  Level Salt Lake Center
08:03PM 40.0478 -108.0928 81° East 511 588 35,000  Level Salt Lake Center
08:04PM 40.0756 -107.8886 80° East 511 588 35,000  Level Salt Lake Center
08:06PM 40.1289 -107.6578 73° East 518 596 35,000  Level Denver Center
08:07PM 40.1692 -107.4850 73° East 518 596 35,000  Level Denver Center
08:08PM 40.2150 -107.2828 73° East 519 597 35,000  Level Denver Center
08:09PM 40.2553 -107.1086 73° East 522 601 35,000  Level Denver Center
08:10PM 40.2858 -106.9650 74° East 517 595 35,000  Level Denver Center
08:11PM 40.3417 -106.7206 73° East 520 598 35,000  Level Denver Center
08:12PM 40.3836 -106.5389 73° East 519 597 35,000  Level Denver Center
08:13PM 40.4208 -106.3581 75° East 515 593 35,000  Level Denver Center
08:14PM 40.4589 -106.1844 74° East 516 594 35,000  Level Denver Center
08:15PM 40.5008 -105.9842 75° East 514 592 35,000  Level Denver Center
08:16PM 40.5397 -105.8022 74° East 517 595 35,000  Level Denver Center
08:17PM 40.5783 -105.6219 74° East 515 593 35,000  Level Denver Center
08:18PM 40.6156 -105.4397 75° East 515 593 35,000  Level Denver Center
08:19PM 40.6528 -105.2592 75° East 513 590 35,000  Level Denver Center
08:20PM 40.6986 -105.0408 74° East 513 590 35,000  Level Denver Center
08:21PM 40.7347 -104.8583 75° East 514 592 35,000  Level Denver Center
08:22PM 40.7781 -104.6825 72° East 507 583 35,000  Level Denver Center
08:23PM 40.8761 -104.5531 45° Northeast 499 574 35,000  Level Denver Center
08:24PM 40.9819 -104.4350 40° Northeast 500 575 35,000  Level Denver Center
08:25PM 41.0658 -104.2528 59° Northeast 508 585 35,000  Level Denver Center
08:26PM 41.1364 -104.0994 59° Northeast 510 587 35,000  Level Denver Center
08:27PM 41.2072 -103.9142 63° Northeast 506 582 35,000  Level Denver Center
08:28PM 41.2419 -103.7369 75° East 518 596 35,000  Level Denver Center
08:29PM 41.2803 -103.5319 76° East 514 592 35,000  Level Denver Center
08:30PM 41.3125 -103.3556 76° East 515 593 35,000  Level Denver Center
08:32PM 41.3522 -103.1497 76° East 516 594 35,000  Level Denver Center
08:33PM 41.3831 -102.9750 77° East 512 589 35,000  Level Denver Center
08:34PM 41.4203 -102.7675 76° East 515 593 35,000  Level Denver Center
08:35PM 41.4517 -102.5897 77° East 515 593 35,000  Level Denver Center
08:36PM 41.4844 -102.4106 76° East 518 596 35,000  Level Denver Center
08:37PM 41.5214 -102.2025 77° East 517 595 35,000  Level Denver Center
08:38PM 41.5547 -102.0208 76° East 523 602 35,000  Level Denver Center
08:39PM 41.5906 -101.8117 77° East 519 597 35,000  Level Denver Center
08:40PM 41.6203 -101.6314 78° East 519 597 35,000  Level Denver Center
08:41PM 41.6556 -101.4203 77° East 520 598 35,000  Level Denver Center
08:42PM 41.6847 -101.2406 78° East 517 595 35,000  Level Denver Center
08:43PM 41.7144 -101.0583 78° East 521 600 35,000  Level Denver Center
08:44PM 41.7497 -100.8458 77° East 521 600 35,000  Level Denver Center
08:45PM 41.7789 -100.6628 78° East 523 602 35,000  Level Denver Center
08:46PM 41.8125 -100.4481 78° East 524 603 35,000  Level Denver Center
08:47PM 41.8414 -100.2644 78° East 524 603 35,000  Level Denver Center
08:48PM 41.8744 -100.0503 78° East 524 603 35,000  Level Denver Center
08:49PM 41.9036 -99.8678 78° East 523 602 35,000  Level Denver Center
08:50PM 41.9336 -99.6692 78° East 521 600 35,000  Level Denver Center
08:51PM 41.9619 -99.4775 79° East 520 598 35,000  Level Denver Center
08:52PM 41.9967 -99.2492 78° East 518 596 35,000  Level Denver Center
08:53PM 42.0242 -99.0569 79° East 520 598 35,000  Level Denver Center
08:54PM 42.0519 -98.8642 79° East 523 602 35,000  Level Denver Center
08:55PM 42.0853 -98.6308 79° East 524 603 35,000  Level Denver Center
08:56PM 42.1122 -98.4356 79° East 527 606 35,000  Level Denver Center
08:58PM 42.1394 -98.2425 79° East 526 605 35,000  Level Minneapolis Center
08:59PM 42.1658 -98.0486 80° East 526 605 35,000  Level Minneapolis Center
09:00PM 42.1931 -97.8531 79° East 528 608 35,000  Level Minneapolis Center
09:01PM 42.2197 -97.6442 80° East 527 606 35,000  Level Minneapolis Center
09:02PM 42.2453 -97.4475 80° East 529 609 35,000  Level Minneapolis Center
09:03PM 42.2758 -97.2117 80° East 531 611 35,000  Level Minneapolis Center
09:04PM 42.3003 -97.0136 80° East 533 613 35,000  Level Minneapolis Center
09:05PM 42.3258 -96.8167 80° East 532 612 35,000  Level Minneapolis Center
09:06PM 42.3500 -96.6194 81° East 532 612 35,000  Level Minneapolis Center
09:08PM 42.3986 -96.2264 80° East 528 608 35,000  Level Minneapolis Center
09:09PM 42.4219 -96.0289 81° East 529 609 35,000  Level Minneapolis Center
09:10PM 42.4494 -95.7914 81° East 529 609 35,000  Level Minneapolis Center
09:11PM 42.4711 -95.5900 82° East 535 616 35,000  Level Minneapolis Center
09:12PM 42.4919 -95.3892 82° East 538 619 35,000  Level Minneapolis Center
09:13PM 42.5156 -95.1906 81° East 534 615 35,000  Level Minneapolis Center
09:14PM 42.5369 -94.9908 82° East 534 615 35,000  Level Minneapolis Center
09:15PM 42.5586 -94.7900 82° East 537 618 35,000  Level Minneapolis Center
09:16PM 42.5797 -94.5808 82° East 538 619 35,000  Level Minneapolis Center
09:17PM 42.5989 -94.3803 83° East 539 620 35,000  Level Minneapolis Center
09:18PM 42.6108 -94.1389 86° East 536 617 35,000  Level Minneapolis Center
09:19PM 42.6111 -93.9389 90° East 534 615 35,000  Level Minneapolis Center
09:20PM 42.6144 -93.7361 89° East 538 619 35,000  Level Minneapolis Center
09:21PM 42.6150 -93.5300 90° East 545 627 35,000  Level Minneapolis Center
09:22PM 42.6161 -93.3264 90° East 545 627 35,000  Level Minneapolis Center
09:23PM 42.6172 -93.1242 90° East 542 624 35,000  Level Minneapolis Center
09:24PM 42.6161 -93.0003 91° East 544 626 35,000 240 Level Chicago Center
09:25PM 42.6153 -92.7978 90° East 540 621 35,400 780 Climbing Chicago Center
09:26PM 42.6133 -92.5492 91° East 552 635 36,700 1,020 Climbing Chicago Center
09:27PM 42.6119 -92.3397 90° East 562 647 37,600 840 Climbing Chicago Center
09:28PM 42.6100 -92.1278 91° East 570 656 38,500 660 Climbing Chicago Center
09:29PM 42.6089 -91.9181 90° East 566 651 39,000 240 Climbing Chicago Center
09:30PM 42.6075 -91.7114 90° East 562 647 39,000  Level Chicago Center
09:31PM 42.6044 -91.4658 91° East 562 647 39,000  Level Chicago Center
09:32PM 42.6006 -91.2564 91° East 566 651 39,000  Level Chicago Center
09:33PM 42.5964 -91.0450 91° East 568 654 39,000  Level Chicago Center
09:34PM 42.5922 -90.8314 91° East 572 658 39,000  Level Chicago Center
09:35PM 42.5878 -90.6197 92° East 568 654 39,000  Level Chicago Center
09:36PM 42.5828 -90.4089 92° East 563 648 39,000  Level Chicago Center
09:37PM 42.5769 -90.1578 92° East 561 646 39,000  Level Chicago Center
09:38PM 42.5725 -89.9481 92° East 560 644 39,000  Level Chicago Center
09:39PM 42.5669 -89.7558 92° East 555 639 39,000  Level Chicago Center
09:40PM 42.5594 -89.5475 93° East 556 640 39,000  Level Chicago Center
09:41PM 42.5503 -89.2967 93° East 558 642 39,000  Level Chicago Center
09:42PM 42.5431 -89.0897 93° East 555 639 39,000  Level Chicago Center
09:44PM 42.5358 -88.8811 93° East 557 641 39,000  Level Chicago Center
09:45PM 42.5272 -88.6728 93° East 558 642 39,000  Level Chicago Center
09:46PM 42.5197 -88.4658 93° East 554 638 39,000  Level Chicago Center
09:47PM 42.5117 -88.2578 93° East 556 640 39,000  Level Chicago Center
09:48PM 42.5022 -88.0075 93° East 558 642 39,000  Level Chicago Center
09:49PM 42.5006 -87.7986 91° East 557 641 39,000  Level Chicago Center
09:50PM 42.5017 -87.5892 90° East 559 643 39,000  Level Chicago Center
09:51PM 42.5011 -87.3706 90° East 561 646 39,000  Level Chicago Center
09:52PM 42.4986 -87.1586 91° East 563 648 39,000  Level Chicago Center
09:53PM 42.4972 -86.9492 90° East 561 646 39,000  Level Chicago Center
09:54PM 42.4958 -86.7378 90° East 564 649 39,000  Level Chicago Center
09:55PM 42.4925 -86.5267 91° East 562 647 39,000  Level Chicago Center
09:56PM 42.4897 -86.3156 91° East 566 651 39,000  Level Chicago Center
09:57PM 42.4867 -86.1033 91° East 569 655 39,000  Level Chicago Center
09:58PM 42.4822 -85.8492 91° East 569 655 39,000  Level Chicago Center
09:59PM 42.4778 -85.6328 92° East 577 664 39,000  Level Chicago Center
10:00PM 42.4736 -85.4144 91° East 583 671 39,000  Level Chicago Center
10:01PM 42.4678 -85.1944 92° East 587 676 39,000  Level Chicago Center
10:02PM 42.4617 -84.9778 92° East 583 671 39,000  Level Chicago Center
10:03PM 42.4558 -84.7594 92° East 582 670 39,000  Level Chicago Center
10:04PM 42.4506 -84.5408 92° East 584 672 39,000  Level Chicago Center
10:05PM 42.4422 -84.2892 92° East 582 670 39,000  Level Cleveland Center
10:06PM 42.4339 -84.0706 93° East 582 670 39,000  Level Cleveland Center
10:07PM 42.4256 -83.8511 93° East 582 670 39,000  Level Cleveland Center
10:08PM 42.4169 -83.6322 93° East 582 670 39,000  Level Cleveland Center
10:09PM 42.4078 -83.4342 94° East 581 669 39,000  Level Cleveland Center
10:10PM 42.3994 -83.1875 93° East 581 669 39,000  Level Cleveland Center
10:11PM 42.3911 -82.9681 93° East 581 669 39,000  Level Cleveland Center
10:12PM 42.3811 -82.7517 94° East 580 667 39,000  Level Cleveland Center
10:13PM 42.3725 -82.5336 93° East 580 667 39,000  Level Cleveland Center
10:14PM 42.3631 -82.3169 93° East 579 666 39,000  Level Cleveland Center
10:15PM 42.3447 -82.0797 96° East 579 666 39,000  Level Cleveland Center
10:16PM 42.3217 -81.8611 98° East 579 666 39,000  Level Cleveland Center
10:17PM 42.2997 -81.6417 98° East 580 667 39,000  Level Cleveland Center
10:18PM 42.2772 -81.4225 98° East 581 669 39,000  Level Cleveland Center
10:19PM 42.2558 -81.2042 97° East 581 669 39,000  Level Cleveland Center
10:20PM 42.2331 -80.9872 98° East 580 667 39,000  Level Cleveland Center
10:21PM 42.2058 -80.7722 100° East 579 666 39,000  Level Cleveland Center
10:22PM 42.1775 -80.5558 100° East 578 665 39,000  Level Cleveland Center
10:23PM 42.1486 -80.3406 100° East 579 666 39,000  Level Cleveland Center
10:24PM 42.1211 -80.1256 100° East 576 663 39,000  Level Cleveland Center
10:25PM 42.0889 -79.9000 101° East 582 670 39,000  Level Cleveland Center
10:26PM 42.0594 -79.6861 100° East 582 670 39,000  Level Cleveland Center
10:27PM 42.0294 -79.4739 101° East 582 670 39,000  Level Cleveland Center
10:28PM 41.9994 -79.2586 101° East 583 671 39,000  Level Cleveland Center
10:29PM 41.9692 -79.0450 101° East 583 671 39,000  Level Cleveland Center
10:30PM 41.9386 -78.8311 101° East 585 673 39,000  Level Cleveland Center
10:31PM 41.9061 -78.6175 101° East 585 673 39,000  Level Cleveland Center
10:32PM 41.8739 -78.4025 101° East 585 673 39,000  Level Cleveland Center
10:34PM 41.8344 -78.1442 101° East 586 674 39,000  Level Cleveland Center
10:35PM 41.8014 -77.9297 102° East 586 674 39,000  Level Cleveland Center
10:35PM 41.7711 -77.7381 102° East 587 676 39,000  Level New York Center
10:36PM 41.7375 -77.5258 102° East 587 676 39,000  Level New York Center
10:37PM 41.7017 -77.3083 102° East 592 681 39,000  Level New York Center
10:38PM 41.6611 -77.0961 104° East 592 681 39,000  Level New York Center
10:39PM 41.6072 -76.8939 110° East 592 681 39,000  Level New York Center
10:40PM 41.5633 -76.7319 110° East 587 676 39,000 -180 Level New York Center
10:41PM 41.5014 -76.5103 110° East 576 663 38,700 -900 Descending New York Center
10:42PM 41.4408 -76.2947 110° East 570 656 37,200 -1,980 Descending New York Center
10:43PM 41.3894 -76.0969 109° East 570 656 34,800 -2,520 Descending New York Center
10:44PM 41.3350 -75.9131 111° Southeast 555 639 32,200 -3,000 Descending New York Center
10:45PM 41.2808 -75.7211 111° Southeast 549 632 28,900 -3,000 Descending New York Center
10:46PM 41.2217 -75.5375 113° Southeast 549 632 26,300 -2,700 Descending New York Center
10:47PM 41.1619 -75.3597 114° Southeast 531 611 23,600 -1,680 Descending New York Center
10:48PM 41.1019 -75.1903 115° Southeast 519 597 23,000 -300 Descending New York Center
10:49PM 41.0436 -75.0189 114° Southeast 507 583 23,000  Level New York Center
10:50PM 40.9917 -74.8367 111° Southeast 507 583 23,000 -180 Level New York Center
10:51PM 40.9708 -74.6514 98° East 512 589 22,700 -1,260 Descending New York Center
10:52PM 40.9497 -74.4608 98° East 517 595 20,500 -1,860 Descending New York Center
10:53PM 40.9333 -74.2833 97° East 484 557 19,000 -780 Descending New York TRACON
10:54PM 40.8667 -74.1500 123° Southeast 439 505 19,000 -540 Level New York TRACON
10:55PM 40.7667 -74.0500 143° Southeast 410 472 18,000 -840 Descending New York TRACON
10:57PM 40.6833 -73.9333 133° Southeast 368 423 17,200 -1,080 Descending New York TRACON
10:58PM 40.6000 -73.8500 143° Southeast 396 456 15,800 -1,500 Descending New York TRACON
10:59PM 40.5167 -73.8000 155° Southeast 323 372 14,200 -1,620 Descending New York TRACON
11:00PM 40.4333 -73.7500 155° Southeast 308 354 12,500 -1,620 Descending New York TRACON
11:01PM 40.3500 -73.7000 155° Southeast 303 349 10,900 -1,620 Descending New York TRACON
11:01PM 40.3336 -73.6136 104° East 293 337 9,700 -1,380 Descending New York Center
11:02PM 40.3936 -73.5506 39° Northeast 179 206 8,500 -1,560 Descending New York Center
11:03PM 40.4733 -73.5211 16° North 242 278 6,600 -2,160 Descending New York Center
11:04PM 40.5400 -73.5211 360° North 247 284 4,200 -1,680 Descending New York Center
11:05PM 40.5678 -73.5878 299° West 197 227 3,300 -1,020 Descending New York Center
11:06PM 40.5953 -73.6544 299° West 192 221 2,200 -1,080 Descending New York Center
11:08PM 40.6167 -73.7167 294° West 125 144 900 -840 Descending New York TRACON
11:09PM 40.6333 -73.7500 303° West 118 136 400 -600 Descending New York TRACON